Time;durP1;ratioP1;P1;durP2;ratioP2;P2;SDS_P1;SDS_P2;PMS_P1;PMS_P2;Temp;Humidity;BMP_temperature;BMP_pressure;BME280_temperature;BME280_humidity;BME280_pressure;Samples;Min_cycle;Max_cycle;Signal;HPM_P1;HPM_P2
2022/12/07 00:02:14;;;;;;;;;69.25;54.50;;;;;;;;5011190;28;45609;-71
2022/12/07 00:04:39;;;;;;;;;71.75;56.25;;;;;;;;5014834;28;45367;-70
2022/12/07 00:07:04;;;;;;;;;69.50;54.50;;;;;;;;5016541;28;45331;-71
2022/12/07 00:09:30;;;;;;;;;73.50;54.00;;;;;;;;5016543;28;45259;-70
2022/12/07 00:11:55;;;;;;;;;70.50;52.25;;;;;;;;5018091;28;45861;-68
2022/12/07 00:14:21;;;;;;;;;64.50;50.25;;;;;;;;5014771;28;45816;-68
2022/12/07 00:19:20;;;;;;;;;71.50;54.00;;;;;;;;5046318;28;45956;-82
2022/12/07 00:21:46;;;;;;;;;68.25;51.25;;;;;;;;5050802;28;45536;-82
2022/12/07 00:24:15;;;;;;;;;65.50;51.00;;;;;;;;5034841;28;46287;-83
2022/12/07 00:26:41;;;;;;;;;69.25;55.25;;;;;;;;5027438;28;46766;-82
2022/12/07 00:29:13;;;;;;;;;65.75;47.50;;;;;;;;5040487;28;45474;-83
2022/12/07 00:31:39;;;;;;;;;65.75;52.75;;;;;;;;5045923;28;45706;-83
2022/12/07 00:34:06;;;;;;;;;70.75;52.25;;;;;;;;5047745;28;45754;-83
2022/12/07 00:36:31;;;;;;;;;71.25;53.25;;;;;;;;5052425;28;46187;-83
2022/12/07 00:39:07;;;;;;;;;65.75;49.50;;;;;;;;5033154;28;45425;-83
2022/12/07 00:41:32;;;;;;;;;67.00;49.25;;;;;;;;5033278;28;45332;-83
2022/12/07 00:43:58;;;;;;;;;61.50;47.75;;;;;;;;5033471;28;47054;-84
2022/12/07 00:46:24;;;;;;;;;56.75;46.25;;;;;;;;5033263;28;48338;-83
2022/12/07 00:48:49;;;;;;;;;63.50;49.00;;;;;;;;5036526;28;45912;-83
2022/12/07 00:51:16;;;;;;;;;65.50;50.25;;;;;;;;5038220;28;45714;-82
2022/12/07 00:53:42;;;;;;;;;61.25;47.00;;;;;;;;5036684;28;46191;-82
2022/12/07 00:56:08;;;;;;;;;67.50;48.00;;;;;;;;5036336;28;47066;-81
2022/12/07 00:58:34;;;;;;;;;54.75;42.50;;;;;;;;5036882;28;45449;-82
2022/12/07 01:00:59;;;;;;;;;69.25;51.75;;;;;;;;5047968;28;45588;-81
2022/12/07 01:03:25;;;;;;;;;64.50;49.25;;;;;;;;5034987;28;46153;-81
2022/12/07 01:05:51;;;;;;;;;64.75;49.50;;;;;;;;5046195;28;46434;-81
2022/12/07 01:08:17;;;;;;;;;67.25;51.00;;;;;;;;5053353;28;45433;-84
2022/12/07 01:10:42;;;;;;;;;65.00;49.50;;;;;;;;5032921;28;45384;-83
2022/12/07 01:13:07;;;;;;;;;63.25;48.00;;;;;;;;5041980;28;46119;-81
2022/12/07 01:15:34;;;;;;;;;64.25;48.50;;;;;;;;5041231;28;47994;-83
2022/12/07 01:17:59;;;;;;;;;68.25;51.50;;;;;;;;5043064;28;45935;-80
2022/12/07 01:20:25;;;;;;;;;59.75;47.25;;;;;;;;5050418;28;45403;-84
2022/12/07 01:22:53;;;;;;;;;64.00;49.00;;;;;;;;5062484;28;45494;-82
2022/12/07 01:25:19;;;;;;;;;61.25;48.50;;;;;;;;5049598;28;46881;-82
2022/12/07 01:27:45;;;;;;;;;59.75;49.75;;;;;;;;5070550;28;45405;-83
2022/12/07 01:30:10;;;;;;;;;67.75;49.75;;;;;;;;5047765;28;45661;-83
2022/12/07 01:32:36;;;;;;;;;59.25;44.25;;;;;;;;5067221;28;45746;-83
2022/12/07 01:35:01;;;;;;;;;60.50;45.75;;;;;;;;5055112;28;45352;-80
2022/12/07 01:37:27;;;;;;;;;60.00;43.50;;;;;;;;5049041;28;45430;-82
2022/12/07 01:39:54;;;;;;;;;57.25;40.50;;;;;;;;5067036;28;44795;-85
2022/12/07 01:42:20;;;;;;;;;57.75;46.00;;;;;;;;5047911;28;46060;-84
2022/12/07 01:45:04;;;;;;;;;56.00;44.00;;;;;;;;5044431;28;46242;-86
2022/12/07 01:47:33;;;;;;;;;58.25;46.00;;;;;;;;5068092;28;45747;-85
2022/12/07 01:49:59;;;;;;;;;56.50;45.75;;;;;;;;5049314;28;45516;-82
2022/12/07 01:52:27;;;;;;;;;59.75;45.50;;;;;;;;5053736;28;45680;-84
2022/12/07 01:54:54;;;;;;;;;51.50;43.25;;;;;;;;5081080;28;46389;-84
2022/12/07 01:57:21;;;;;;;;;52.50;42.00;;;;;;;;5087598;28;45264;-83
2022/12/07 01:59:48;;;;;;;;;59.75;43.25;;;;;;;;5065676;28;45316;-82
2022/12/07 02:02:18;;;;;;;;;53.00;41.75;;;;;;;;5050220;28;45757;-82
2022/12/07 02:04:45;;;;;;;;;54.00;42.00;;;;;;;;5073282;28;45368;-82
2022/12/07 02:07:11;;;;;;;;;46.50;36.50;;;;;;;;5067853;28;45415;-80
2022/12/07 02:09:37;;;;;;;;;52.75;40.75;;;;;;;;5053068;28;45479;-82
2022/12/07 02:12:02;;;;;;;;;45.75;39.00;;;;;;;;5060279;28;45560;-83
2022/12/07 02:14:28;;;;;;;;;50.00;41.00;;;;;;;;5056195;28;46678;-82
2022/12/07 02:17:02;;;;;;;;;53.75;40.00;;;;;;;;5078482;28;45545;-83
2022/12/07 02:19:39;;;;;;;;;45.75;37.50;;;;;;;;5077427;28;45455;-83
2022/12/07 02:22:11;;;;;;;;;49.75;40.25;;;;;;;;5060271;28;45278;-82
2022/12/07 02:24:36;;;;;;;;;48.75;37.75;;;;;;;;5056285;28;47144;-82
2022/12/07 02:27:04;;;;;;;;;48.50;38.00;;;;;;;;5055656;28;44809;-83
2022/12/07 02:29:39;;;;;;;;;31.00;25.75;;;;;;;;5043277;28;45396;-82
2022/12/07 02:32:16;;;;;;;;;53.25;41.00;;;;;;;;5057844;28;45379;-83
2022/12/07 02:34:53;;;;;;;;;51.75;39.50;;;;;;;;5039107;28;47001;-82
2022/12/07 02:37:27;;;;;;;;;51.25;40.50;;;;;;;;5037025;28;45936;-83
2022/12/07 02:39:57;;;;;;;;;37.25;33.75;;;;;;;;5037905;28;45495;-83
2022/12/07 02:42:33;;;;;;;;;49.75;37.50;;;;;;;;5056740;28;45887;-82
2022/12/07 02:44:59;;;;;;;;;50.00;36.25;;;;;;;;5033006;28;47965;-81
2022/12/07 02:47:24;;;;;;;;;43.75;37.25;;;;;;;;5054284;28;45564;-82
2022/12/07 02:49:50;;;;;;;;;50.50;35.25;;;;;;;;5037119;28;45373;-83
2022/12/07 02:52:15;;;;;;;;;39.25;29.25;;;;;;;;5038699;28;45686;-85
2022/12/07 02:54:41;;;;;;;;;50.00;36.75;;;;;;;;5067592;28;45784;-82
2022/12/07 02:57:06;;;;;;;;;40.50;34.25;;;;;;;;5035768;28;45734;-82
2022/12/07 02:59:34;;;;;;;;;46.00;37.00;;;;;;;;5052926;28;45492;-82
2022/12/07 03:02:00;;;;;;;;;52.00;37.25;;;;;;;;5054453;28;45613;-81
2022/12/07 03:04:45;;;;;;;;;40.50;34.50;;;;;;;;5047987;28;45598;-83
2022/12/07 03:07:25;;;;;;;;;38.25;31.75;;;;;;;;5001473;28;45567;-81
2022/12/07 03:09:57;;;;;;;;;41.50;34.00;;;;;;;;5052912;28;45658;-83
2022/12/07 03:12:26;;;;;;;;;43.00;33.25;;;;;;;;5035100;28;45523;-81
2022/12/07 03:15:00;;;;;;;;;43.00;35.50;;;;;;;;5034597;28;47350;-81
2022/12/07 03:17:27;;;;;;;;;48.50;35.75;;;;;;;;5053214;28;45754;-82
2022/12/07 03:19:56;;;;;;;;;47.25;32.75;;;;;;;;5034870;28;45511;-82
2022/12/07 03:22:23;;;;;;;;;32.75;31.75;;;;;;;;5065273;28;45841;-80
2022/12/07 03:24:55;;;;;;;;;37.25;34.50;;;;;;;;5054065;28;46387;-82
2022/12/07 03:27:23;;;;;;;;;39.00;35.00;;;;;;;;5056821;28;45520;-81
2022/12/07 03:29:56;;;;;;;;;49.25;34.75;;;;;;;;5066270;28;45743;-82
2022/12/07 03:32:24;;;;;;;;;36.50;26.25;;;;;;;;5033517;28;45962;-82
2022/12/07 03:34:57;;;;;;;;;48.50;36.50;;;;;;;;5040299;28;46354;-82
2022/12/07 03:37:41;;;;;;;;;46.00;33.50;;;;;;;;5064277;28;45542;-82
2022/12/07 03:40:12;;;;;;;;;41.25;34.25;;;;;;;;5043853;28;46052;-82
2022/12/07 03:42:37;;;;;;;;;50.00;34.50;;;;;;;;5038217;28;45784;-82
2022/12/07 03:45:03;;;;;;;;;42.00;35.00;;;;;;;;5053836;28;46453;-81
2022/12/07 03:47:35;;;;;;;;;42.00;32.50;;;;;;;;5072257;28;44729;-81
2022/12/07 03:50:06;;;;;;;;;39.75;32.00;;;;;;;;5070189;28;44956;-85
2022/12/07 03:52:41;;;;;;;;;48.00;33.25;;;;;;;;5074410;28;45496;-80
2022/12/07 03:55:11;;;;;;;;;43.75;35.00;;;;;;;;5048586;28;47222;-81
2022/12/07 03:57:37;;;;;;;;;32.75;27.75;;;;;;;;5060536;28;45743;-80
2022/12/07 04:00:07;;;;;;;;;34.75;30.50;;;;;;;;5053024;28;45750;-83
2022/12/07 04:02:33;;;;;;;;;32.25;27.50;;;;;;;;5045524;28;45992;-82
2022/12/07 04:04:58;;;;;;;;;34.75;28.75;;;;;;;;5047963;28;46169;-82
2022/12/07 04:07:24;;;;;;;;;39.50;33.25;;;;;;;;5031419;28;45432;-83
2022/12/07 04:09:54;;;;;;;;;40.75;32.50;;;;;;;;5027158;28;45466;-84
2022/12/07 04:12:20;;;;;;;;;32.75;28.50;;;;;;;;5040195;28;46417;-82
2022/12/07 04:14:45;;;;;;;;;31.50;29.00;;;;;;;;5068235;28;45442;-82
2022/12/07 04:17:11;;;;;;;;;30.00;26.00;;;;;;;;5053058;28;45485;-81
2022/12/07 04:19:36;;;;;;;;;30.75;27.75;;;;;;;;5055980;28;45473;-83
2022/12/07 04:22:03;;;;;;;;;36.00;28.50;;;;;;;;5057161;28;45548;-83
2022/12/07 04:24:28;;;;;;;;;33.25;29.75;;;;;;;;5041182;28;47242;-83
2022/12/07 04:26:54;;;;;;;;;31.50;27.00;;;;;;;;5041043;28;45804;-85
2022/12/07 04:29:20;;;;;;;;;32.50;25.00;;;;;;;;5036053;28;45812;-84
2022/12/07 04:31:45;;;;;;;;;30.00;24.25;;;;;;;;5042783;28;44914;-84
2022/12/07 04:34:14;;;;;;;;;30.25;25.25;;;;;;;;5040177;28;46801;-83
2022/12/07 04:36:40;;;;;;;;;27.75;24.50;;;;;;;;5060146;28;45818;-85
2022/12/07 04:39:08;;;;;;;;;28.50;26.75;;;;;;;;5046563;28;45493;-83
2022/12/07 04:41:33;;;;;;;;;35.75;26.00;;;;;;;;5038678;28;45973;-84
2022/12/07 04:44:03;;;;;;;;;28.25;23.75;;;;;;;;5055676;28;45551;-81
2022/12/07 04:46:30;;;;;;;;;27.50;26.25;;;;;;;;5033652;28;45721;-84
2022/12/07 04:48:57;;;;;;;;;30.25;26.25;;;;;;;;5020286;28;45768;-84
2022/12/07 04:51:24;;;;;;;;;31.25;27.00;;;;;;;;5042428;28;46519;-83
2022/12/07 04:53:50;;;;;;;;;28.25;24.00;;;;;;;;5044300;28;47793;-82
2022/12/07 04:56:16;;;;;;;;;33.00;25.00;;;;;;;;5048128;28;45535;-83
2022/12/07 04:58:41;;;;;;;;;24.00;24.00;;;;;;;;5048644;28;45814;-85
2022/12/07 05:01:07;;;;;;;;;37.75;29.50;;;;;;;;5039197;28;47024;-82
2022/12/07 05:03:32;;;;;;;;;31.75;26.75;;;;;;;;5043964;28;46691;-81
2022/12/07 05:05:58;;;;;;;;;34.25;24.00;;;;;;;;5039439;28;45578;-81
2022/12/07 05:08:23;;;;;;;;;29.00;23.50;;;;;;;;5041355;28;45386;-83
2022/12/07 05:10:49;;;;;;;;;30.50;27.00;;;;;;;;5055521;28;46013;-81
2022/12/07 05:13:14;;;;;;;;;31.50;27.75;;;;;;;;5034997;28;46962;-82
2022/12/07 05:15:45;;;;;;;;;32.50;26.00;;;;;;;;5061305;28;45324;-84
2022/12/07 05:18:12;;;;;;;;;33.25;29.75;;;;;;;;5042064;28;45340;-82
2022/12/07 05:20:38;;;;;;;;;38.25;29.00;;;;;;;;5065607;28;45715;-83
2022/12/07 05:23:06;;;;;;;;;25.00;25.00;;;;;;;;5038200;28;46385;-85
2022/12/07 05:25:32;;;;;;;;;32.50;26.75;;;;;;;;5054740;28;45491;-84
2022/12/07 05:27:57;;;;;;;;;27.00;25.50;;;;;;;;5068137;28;45804;-83
2022/12/07 05:30:23;;;;;;;;;32.00;26.50;;;;;;;;5059747;28;46397;-83
2022/12/07 05:32:49;;;;;;;;;46.50;38.50;;;;;;;;5044429;28;47144;-83
2022/12/07 05:35:14;;;;;;;;;30.75;27.25;;;;;;;;5044514;28;45725;-83
2022/12/07 05:37:40;;;;;;;;;34.75;24.50;;;;;;;;5046588;28;45410;-83
2022/12/07 05:40:06;;;;;;;;;33.75;25.50;;;;;;;;5058061;28;45715;-80
2022/12/07 05:42:32;;;;;;;;;31.50;27.25;;;;;;;;5040052;28;47348;-80
2022/12/07 05:44:57;;;;;;;;;32.50;26.25;;;;;;;;5044891;28;44881;-84
2022/12/07 05:47:22;;;;;;;;;29.25;25.00;;;;;;;;5048199;28;45787;-79
2022/12/07 05:49:48;;;;;;;;;34.25;27.25;;;;;;;;5053036;28;45427;-77
2022/12/07 05:52:13;;;;;;;;;34.50;29.25;;;;;;;;5054274;28;45798;-80
2022/12/07 05:54:38;;;;;;;;;30.00;25.25;;;;;;;;5033363;28;45750;-79
2022/12/07 05:57:04;;;;;;;;;37.50;28.75;;;;;;;;5036838;28;45701;-80
2022/12/07 05:59:29;;;;;;;;;34.25;28.50;;;;;;;;5038630;28;45934;-82
2022/12/07 06:02:02;;;;;;;;;40.25;29.50;;;;;;;;5046454;28;46264;-79
2022/12/07 06:04:29;;;;;;;;;32.00;30.50;;;;;;;;5029870;28;45557;-80
2022/12/07 06:06:55;;;;;;;;;30.75;27.75;;;;;;;;5042517;28;45840;-79
2022/12/07 06:09:21;;;;;;;;;38.00;27.75;;;;;;;;5042505;28;46800;-79
2022/12/07 06:14:31;;;;;;;;;35.50;31.25;;;;;;;;5056969;28;46581;-81
2022/12/07 06:16:56;;;;;;;;;33.25;26.75;;;;;;;;5050549;28;45374;-80
2022/12/07 06:19:21;;;;;;;;;37.75;30.00;;;;;;;;5055995;28;45426;-81
2022/12/07 06:21:47;;;;;;;;;34.50;30.00;;;;;;;;5049939;28;45427;-80
2022/12/07 06:24:13;;;;;;;;;34.75;30.75;;;;;;;;5034036;28;45384;-80
2022/12/07 06:26:39;;;;;;;;;30.00;27.75;;;;;;;;5055063;28;45506;-81
2022/12/07 06:29:05;;;;;;;;;30.67;24.00;;;;;;;;5038759;28;45998;-81
2022/12/07 06:31:30;;;;;;;;;35.00;30.50;;;;;;;;5050797;28;46421;-82
2022/12/07 06:33:59;;;;;;;;;31.50;25.00;;;;;;;;5046858;28;45359;-84
2022/12/07 06:36:25;;;;;;;;;29.00;23.00;;;;;;;;5053655;28;45733;-82
2022/12/07 06:38:50;;;;;;;;;36.00;31.50;;;;;;;;5028290;28;46009;-81
2022/12/07 06:41:23;;;;;;;;;39.00;33.00;;;;;;;;5050893;28;46339;-82
2022/12/07 06:43:49;;;;;;;;;34.75;30.00;;;;;;;;5030392;28;45468;-82
2022/12/07 06:46:15;;;;;;;;;36.25;31.25;;;;;;;;5042732;28;45577;-84
2022/12/07 06:48:41;;;;;;;;;40.50;30.75;;;;;;;;5031855;28;45406;-81
2022/12/07 06:51:07;;;;;;;;;34.25;28.50;;;;;;;;5037718;28;46347;-81
2022/12/07 06:53:32;;;;;;;;;39.50;30.50;;;;;;;;5063871;28;45438;-81
2022/12/07 06:55:57;;;;;;;;;39.75;32.25;;;;;;;;5058426;28;45336;-80
2022/12/07 06:58:23;;;;;;;;;37.00;33.50;;;;;;;;5056257;28;45429;-82
2022/12/07 07:00:52;;;;;;;;;42.75;34.00;;;;;;;;5051840;28;45522;-82
2022/12/07 07:03:17;;;;;;;;;40.00;30.00;;;;;;;;5052265;28;45469;-83
2022/12/07 07:05:43;;;;;;;;;35.25;29.75;;;;;;;;5034874;28;46072;-81
2022/12/07 07:08:09;;;;;;;;;42.25;34.50;;;;;;;;5062527;28;45443;-82
2022/12/07 07:10:35;;;;;;;;;32.75;29.75;;;;;;;;5044297;28;46611;-83
2022/12/07 07:13:06;;;;;;;;;34.25;26.50;;;;;;;;5041339;28;46612;-85
2022/12/07 07:15:32;;;;;;;;;31.75;29.75;;;;;;;;5049220;28;45579;-81
2022/12/07 07:18:03;;;;;;;;;5.75;3.50;;;;;;;;5057458;28;45939;-88
2022/12/07 07:21:02;;;;;;;;;29.33;23.00;;;;;;;;5061166;28;45770;-88
2022/12/07 07:23:31;;;;;;;;;41.50;33.00;;;;;;;;5035773;28;45830;-84
2022/12/07 07:26:09;;;;;;;;;36.75;29.50;;;;;;;;5041893;28;45843;-85
2022/12/07 07:32:15;;;;;;;;;;;;;;;;;;;;;
2022/12/07 07:38:37;;;;;;;;;34.00;33.00;;;;;;;;4870112;29;45777;-88
2022/12/07 07:44:06;;;;;;;;;31.50;25.75;;;;;;;;4878921;29;45751;-86
2022/12/07 07:46:33;;;;;;;;;34.50;32.00;;;;;;;;4891753;28;45500;-84
2022/12/07 07:49:24;;;;;;;;;36.00;28.00;;;;;;;;4984910;28;45565;-85
2022/12/07 07:51:51;;;;;;;;;34.25;29.25;;;;;;;;5056845;28;45333;-83
2022/12/07 07:54:16;;;;;;;;;36.25;29.25;;;;;;;;5050304;28;45903;-83
2022/12/07 07:56:45;;;;;;;;;34.00;26.25;;;;;;;;5050380;28;45684;-83
2022/12/07 07:59:10;;;;;;;;;40.75;31.50;;;;;;;;5029560;28;45854;-81
2022/12/07 08:01:35;;;;;;;;;35.50;29.50;;;;;;;;5027937;28;45855;-83
2022/12/07 08:04:01;;;;;;;;;40.00;33.75;;;;;;;;5030094;28;45899;-81
2022/12/07 08:06:27;;;;;;;;;41.25;35.00;;;;;;;;5034516;28;45436;-82
2022/12/07 08:08:52;;;;;;;;;39.75;33.75;;;;;;;;5028568;28;45928;-83
2022/12/07 08:11:20;;;;;;;;;40.50;35.25;;;;;;;;5056063;28;45543;-83
2022/12/07 08:14:33;;;;;;;;;36.00;30.75;;;;;;;;5044792;28;47372;-86
2022/12/07 08:16:59;;;;;;;;;46.75;35.25;;;;;;;;5050108;28;45650;-83
2022/12/07 08:19:25;;;;;;;;;46.50;37.00;;;;;;;;5034881;28;45698;-82
2022/12/07 08:22:08;;;;;;;;;42.25;34.75;;;;;;;;5030841;28;45954;-83
2022/12/07 08:24:34;;;;;;;;;55.25;38.50;;;;;;;;5046873;28;45496;-82
2022/12/07 08:27:11;;;;;;;;;49.50;37.75;;;;;;;;5038441;28;44872;-82
2022/12/07 08:29:36;;;;;;;;;47.50;38.75;;;;;;;;5058926;28;45885;-82
2022/12/07 08:32:02;;;;;;;;;52.50;35.75;;;;;;;;5042762;28;45566;-82
2022/12/07 08:34:28;;;;;;;;;51.25;40.00;;;;;;;;5046200;28;46155;-82
2022/12/07 08:36:53;;;;;;;;;44.75;37.50;;;;;;;;5038726;28;45364;-83
2022/12/07 08:39:22;;;;;;;;;44.75;36.25;;;;;;;;5040170;28;45878;-83
2022/12/07 08:41:50;;;;;;;;;42.75;37.25;;;;;;;;5026256;28;45764;-84
2022/12/07 08:44:16;;;;;;;;;51.25;36.25;;;;;;;;5049293;28;45568;-83
2022/12/07 08:46:46;;;;;;;;;42.50;36.00;;;;;;;;5031632;28;46038;-84
2022/12/07 08:49:13;;;;;;;;;40.25;33.75;;;;;;;;5040058;28;45627;-83
2022/12/07 08:51:39;;;;;;;;;42.25;31.50;;;;;;;;5055209;28;44878;-84
2022/12/07 08:54:07;;;;;;;;;44.50;36.50;;;;;;;;5048584;28;45776;-84
2022/12/07 08:56:33;;;;;;;;;37.00;34.25;;;;;;;;5045969;28;44833;-84
2022/12/07 08:58:58;;;;;;;;;39.75;35.00;;;;;;;;5051580;28;45654;-84
2022/12/07 09:01:24;;;;;;;;;48.75;37.25;;;;;;;;5063657;28;45546;-81
2022/12/07 09:04:00;;;;;;;;;;;;;;;;;;;;;
2022/12/07 09:06:26;;;;;;;;;40.25;28.00;;;;;;;;5048874;28;73505;-83
2022/12/07 09:08:58;;;;;;;;;40.25;33.75;;;;;;;;5040526;28;45349;-84
2022/12/07 09:11:23;;;;;;;;;42.25;35.50;;;;;;;;5042567;28;46287;-84
2022/12/07 09:13:49;;;;;;;;;39.50;31.50;;;;;;;;5056569;28;46564;-84
2022/12/07 09:16:14;;;;;;;;;37.75;32.75;;;;;;;;5034376;28;45577;-82
2022/12/07 09:18:40;;;;;;;;;35.50;28.75;;;;;;;;5037992;28;45839;-83
2022/12/07 09:21:05;;;;;;;;;45.25;35.25;;;;;;;;5049367;28;45253;-84
2022/12/07 09:23:31;;;;;;;;;39.00;33.25;;;;;;;;5064284;28;45527;-84
2022/12/07 09:26:02;;;;;;;;;44.33;34.67;;;;;;;;5060840;28;45459;-84
2022/12/07 09:28:28;;;;;;;;;37.33;33.67;;;;;;;;5059282;28;45942;-85
2022/12/07 09:30:54;;;;;;;;;39.33;32.67;;;;;;;;5043921;28;45872;-84
2022/12/07 09:33:20;;;;;;;;;35.33;31.67;;;;;;;;5039870;28;46871;-84
2022/12/07 09:35:52;;;;;;;;;4.00;4.00;;;;;;;;5042900;28;45521;-86
2022/12/07 09:38:26;;;;;;;;;41.33;34.33;;;;;;;;5052255;28;45587;-87
2022/12/07 09:41:21;;;;;;;;;;;;;;;;;;;;;
2022/12/07 09:46:59;;;;;;;;;45.75;35.00;;;;;;;;5036613;28;45513;-84
2022/12/07 09:49:34;;;;;;;;;47.33;34.33;;;;;;;;5057502;28;45773;-85
2022/12/07 09:52:25;;;;;;;;;46.50;35.50;;;;;;;;5068915;28;45572;-84
2022/12/07 09:54:51;;;;;;;;;44.33;36.00;;;;;;;;5038574;28;45442;-84
2022/12/07 09:57:25;;;;;;;;;47.50;35.50;;;;;;;;5040210;28;45477;-83
2022/12/07 10:00:01;;;;;;;;;44.25;35.00;;;;;;;;5051815;28;47227;-82
2022/12/07 10:02:37;;;;;;;;;50.67;39.00;;;;;;;;5058089;28;45366;-85
2022/12/07 10:05:16;;;;;;;;;51.67;37.67;;;;;;;;5037745;28;45654;-85
2022/12/07 10:07:45;;;;;;;;;44.33;34.67;;;;;;;;5052306;28;44925;-84
2022/12/07 10:10:22;;;;;;;;;43.33;32.33;;;;;;;;5044558;28;45557;-83
2022/12/07 10:12:53;;;;;;;;;36.67;33.00;;;;;;;;5042544;28;45938;-83
2022/12/07 10:15:18;;;;;;;;;48.50;34.75;;;;;;;;5049256;28;47009;-84
2022/12/07 10:17:48;;;;;;;;;39.67;33.33;;;;;;;;5038680;28;45899;-83
2022/12/07 10:20:30;;;;;;;;;41.33;34.67;;;;;;;;5044469;28;45635;-85
2022/12/07 10:22:57;;;;;;;;;54.25;38.25;;;;;;;;5057215;28;45832;-84
2022/12/07 10:25:34;;;;;;;;;42.33;34.00;;;;;;;;5040317;28;45891;-84
2022/12/07 10:28:08;;;;;;;;;49.25;39.25;;;;;;;;5061049;28;45603;-86
2022/12/07 10:30:49;;;;;;;;;48.00;35.33;;;;;;;;5051326;28;45456;-83
2022/12/07 10:33:44;;;;;;;;;42.33;35.67;;;;;;;;5056046;28;45715;-85
2022/12/07 10:36:28;;;;;;;;;45.75;37.25;;;;;;;;5062348;28;46151;-85
2022/12/07 10:39:22;;;;;;;;;50.50;37.75;;;;;;;;5064750;28;45585;-85
2022/12/07 10:41:58;;;;;;;;;42.67;34.33;;;;;;;;5060551;28;45507;-86
2022/12/07 10:44:35;;;;;;;;;50.00;39.00;;;;;;;;5042158;28;45522;-83
2022/12/07 10:47:42;;;;;;;;;37.33;33.33;;;;;;;;5065912;28;45540;-85
2022/12/07 10:53:41;;;;;;;;;44.50;36.00;;;;;;;;4997424;28;45447;-85
2022/12/07 10:56:09;;;;;;;;;50.67;36.00;;;;;;;;4999208;28;46523;-85
2022/12/07 10:58:40;;;;;;;;;47.00;35.75;;;;;;;;4998517;28;45592;-84
2022/12/07 11:01:14;;;;;;;;;50.67;36.33;;;;;;;;4995739;28;45811;-86
2022/12/07 11:03:58;;;;;;;;;47.67;35.00;;;;;;;;5001366;28;45243;-85
2022/12/07 11:06:32;;;;;;;;;47.75;38.25;;;;;;;;4994637;28;46032;-84
2022/12/07 11:09:17;;;;;;;;;41.33;35.33;;;;;;;;4996294;28;46865;-85
2022/12/07 11:11:57;;;;;;;;;47.33;36.00;;;;;;;;4989837;28;45916;-87
2022/12/07 11:14:22;;;;;;;;;37.00;33.00;;;;;;;;4974953;28;45486;-83
2022/12/07 11:17:06;;;;;;;;;41.33;35.67;;;;;;;;5045702;28;45788;-84
2022/12/07 11:19:51;;;;;;;;;46.67;38.00;;;;;;;;4679427;28;10734711;-85
2022/12/07 11:22:44;;;;;;;;;40.33;35.00;;;;;;;;5065579;28;46116;-85
2022/12/07 11:25:39;;;;;;;;;;;;;;;;;;;;;
2022/12/07 11:28:58;;;;;;;;;;;;;;;;;;;;;
2022/12/07 11:31:42;;;;;;;;;43.00;34.67;;;;;;;;4977414;28;75057;-82
2022/12/07 11:34:19;;;;;;;;;42.33;34.00;;;;;;;;5016909;28;46036;-84
2022/12/07 11:36:52;;;;;;;;;45.67;33.33;;;;;;;;5059626;28;45226;-84
2022/12/07 11:39:50;;;;;;;;;43.33;34.33;;;;;;;;5066049;28;44864;-85
2022/12/07 11:42:36;;;;;;;;;;;;;;;;;;;;;
2022/12/07 11:45:30;;;;;;;;;;;;;;;;;;;;;
2022/12/07 11:48:14;;;;;;;;;44.67;34.00;;;;;;;;5052275;28;73483;-82
2022/12/07 11:50:56;;;;;;;;;43.67;35.67;;;;;;;;5050961;28;45490;-85
2022/12/07 11:54:09;;;;;;;;;47.33;39.33;;;;;;;;5053484;28;45882;-84
2022/12/07 12:00:04;;;;;;;;;46.33;36.00;;;;;;;;4973147;28;46200;-85
2022/12/07 12:03:03;;;;;;;;;;;;;;;;;;;;;
2022/12/07 12:08:41;;;;;;;;;44.67;35.33;;;;;;;;4890952;28;45880;-82
2022/12/07 12:11:24;;;;;;;;;48.00;36.50;;;;;;;;4935246;28;45369;-84
2022/12/07 12:14:12;;;;;;;;;43.67;35.00;;;;;;;;4965892;28;45804;-84
2022/12/07 12:17:20;;;;;;;;;45.50;35.00;;;;;;;;4954273;28;46150;-84
2022/12/07 12:32:57;;;;;;;;;42.50;35.25;;;;;;;;4893537;29;45691;-83
2022/12/07 12:45:01;;;;;;;;;21.33;19.33;;;;;;;;4901798;28;45539;-85
2022/12/07 12:47:49;;;;;;;;;23.00;19.67;;;;;;;;4947470;28;45771;-82
2022/12/07 12:50:30;;;;;;;;;19.00;17.00;;;;;;;;4997207;28;46488;-83
2022/12/07 12:53:11;;;;;;;;;22.00;20.33;;;;;;;;5019163;28;45929;-82
2022/12/07 12:55:43;;;;;;;;;22.00;16.67;;;;;;;;5023476;28;45547;-81
2022/12/07 12:58:18;;;;;;;;;17.33;16.00;;;;;;;;5030877;28;45845;-84
2022/12/07 13:00:44;;;;;;;;;26.00;20.00;;;;;;;;5031929;28;45894;-83
2022/12/07 13:03:22;;;;;;;;;24.00;21.33;;;;;;;;5038089;28;45474;-83
2022/12/07 13:05:49;;;;;;;;;28.33;24.00;;;;;;;;5035644;28;47021;-85
2022/12/07 13:08:21;;;;;;;;;24.67;21.67;;;;;;;;5023027;28;45526;-84
2022/12/07 13:10:49;;;;;;;;;25.67;23.00;;;;;;;;5038319;28;46065;-84
2022/12/07 13:13:15;;;;;;;;;23.00;21.00;;;;;;;;5022827;28;45525;-83
2022/12/07 13:15:48;;;;;;;;;24.67;22.67;;;;;;;;5021217;28;45960;-82
2022/12/07 13:18:29;;;;;;;;;20.33;19.33;;;;;;;;5038441;28;45660;-83
2022/12/07 13:21:01;;;;;;;;;22.33;19.00;;;;;;;;5037475;28;45527;-83
2022/12/07 13:23:30;;;;;;;;;19.00;19.00;;;;;;;;5043935;28;46218;-83
2022/12/07 13:26:01;;;;;;;;;25.00;21.00;;;;;;;;5057819;28;45731;-83
2022/12/07 13:28:35;;;;;;;;;21.67;17.00;;;;;;;;5049897;28;45529;-84
2022/12/07 13:31:30;;;;;;;;;27.67;21.67;;;;;;;;5040629;28;45444;-84
2022/12/07 13:34:17;;;;;;;;;26.67;21.00;;;;;;;;4987525;28;45928;-87
2022/12/07 13:37:03;;;;;;;;;23.00;20.00;;;;;;;;5061893;28;45331;-88
2022/12/07 13:39:32;;;;;;;;;23.33;21.33;;;;;;;;5059893;28;45990;-85
2022/12/07 13:42:12;;;;;;;;;28.00;24.33;;;;;;;;5049570;28;45457;-87
2022/12/07 13:44:46;;;;;;;;;26.33;21.00;;;;;;;;5061770;28;45748;-85
2022/12/07 13:50:38;;;;;;;;;29.00;23.33;;;;;;;;4986533;28;45649;-86
2022/12/07 13:53:13;;;;;;;;;19.67;16.33;;;;;;;;5011311;28;45741;-87
2022/12/07 13:55:56;;;;;;;;;;;;;;;;;;;;;
2022/12/07 13:58:23;;;;;;;;;19.67;16.33;;;;;;;;5061991;28;74607;-84
2022/12/07 14:04:19;;;;;;;;;20.00;18.67;;;;;;;;5027364;28;45674;-86
2022/12/07 14:06:51;;;;;;;;;17.33;16.67;;;;;;;;5066325;28;46195;-84
2022/12/07 14:09:18;;;;;;;;;25.00;17.67;;;;;;;;5052488;28;47186;-84
2022/12/07 14:11:45;;;;;;;;;21.00;15.00;;;;;;;;5036949;28;45778;-85
2022/12/07 14:14:37;;;;;;;;;18.33;17.00;;;;;;;;5046119;28;45508;-84
2022/12/07 14:17:22;;;;;;;;;14.67;14.67;;;;;;;;5066826;28;45453;-87
2022/12/07 14:20:00;;;;;;;;;15.33;13.67;;;;;;;;5042400;28;45522;-86
2022/12/07 14:22:36;;;;;;;;;19.67;18.33;;;;;;;;5028424;28;45495;-84
2022/12/07 14:25:16;;;;;;;;;15.67;12.33;;;;;;;;5026524;28;45388;-86
2022/12/07 14:28:01;;;;;;;;;;;;;;;;;;;;;
2022/12/07 14:30:38;;;;;;;;;15.67;14.00;;;;;;;;5029758;28;74900;-84
2022/12/07 14:33:04;;;;;;;;;16.33;13.00;;;;;;;;5039112;28;45780;-85
2022/12/07 14:35:31;;;;;;;;;17.33;14.00;;;;;;;;5037061;28;45513;-84
2022/12/07 14:37:57;;;;;;;;;20.00;15.33;;;;;;;;5042752;28;46080;-86
2022/12/07 14:40:24;;;;;;;;;17.67;15.00;;;;;;;;5044485;28;47029;-85
2022/12/07 14:42:51;;;;;;;;;16.00;13.00;;;;;;;;5046015;28;45996;-83
2022/12/07 14:45:19;;;;;;;;;17.00;17.00;;;;;;;;5039110;28;45802;-85
2022/12/07 14:47:45;;;;;;;;;20.00;16.00;;;;;;;;5030067;28;45754;-85
2022/12/07 14:50:21;;;;;;;;;15.67;14.67;;;;;;;;5036857;28;46742;-84
2022/12/07 14:52:50;;;;;;;;;12.33;11.00;;;;;;;;5041179;28;44762;-84
2022/12/07 14:55:47;;;;;;;;;17.67;13.67;;;;;;;;5039826;28;45442;-85
2022/12/07 14:58:16;;;;;;;;;13.33;9.33;;;;;;;;5022794;28;45493;-84
2022/12/07 15:01:03;;;;;;;;;15.33;11.67;;;;;;;;5039606;28;45439;-86
2022/12/07 15:03:29;;;;;;;;;17.33;14.67;;;;;;;;5041284;28;45442;-85
2022/12/07 15:05:58;;;;;;;;;18.67;15.00;;;;;;;;5047683;28;45407;-84
2022/12/07 15:08:24;;;;;;;;;17.67;14.00;;;;;;;;5046817;28;45910;-84
2022/12/07 15:10:51;;;;;;;;;19.33;16.67;;;;;;;;5051004;28;45475;-87
2022/12/07 15:16:05;;;;;;;;;17.67;16.00;;;;;;;;5035830;28;45554;-87
2022/12/07 15:19:16;;;;;;;;;16.67;15.67;;;;;;;;5039513;28;46135;-86
2022/12/07 15:21:46;;;;;;;;;18.00;17.67;;;;;;;;5013024;28;45488;-85
2022/12/07 15:24:12;;;;;;;;;20.00;14.67;;;;;;;;5024959;28;45338;-85
2022/12/07 15:26:38;;;;;;;;;18.00;16.33;;;;;;;;5043502;28;45552;-82
2022/12/07 15:29:04;;;;;;;;;18.67;18.33;;;;;;;;5055955;28;46088;-84
2022/12/07 15:31:30;;;;;;;;;19.33;16.00;;;;;;;;5056047;28;45395;-85
2022/12/07 15:33:59;;;;;;;;;23.00;18.00;;;;;;;;5058057;28;45256;-84
2022/12/07 15:36:26;;;;;;;;;28.67;23.33;;;;;;;;5049018;28;45467;-86
2022/12/07 15:38:55;;;;;;;;;20.67;17.00;;;;;;;;5040515;28;47048;-82
2022/12/07 15:41:21;;;;;;;;;29.00;21.67;;;;;;;;5033919;28;47369;-86
2022/12/07 15:46:36;;;;;;;;;23.33;19.33;;;;;;;;5035702;28;45497;-86
2022/12/07 15:49:02;;;;;;;;;24.33;22.67;;;;;;;;5041489;28;45871;-86
2022/12/07 15:51:28;;;;;;;;;25.33;17.33;;;;;;;;5039845;28;46604;-87
2022/12/07 15:53:57;;;;;;;;;23.67;20.00;;;;;;;;5042869;28;45396;-86